createdAt,value
2023-02-23T00:01:07.000Z,8.1
2023-02-23T00:02:23.000Z,8.1
2023-02-23T00:03:39.000Z,8.1
2023-02-23T00:04:54.000Z,8.1
2023-02-23T00:06:10.000Z,8.1
2023-02-23T00:07:26.000Z,8
2023-02-23T00:08:42.000Z,8
2023-02-23T00:09:59.000Z,8
2023-02-23T00:11:15.000Z,8
2023-02-23T00:12:31.000Z,8
2023-02-23T00:13:47.000Z,7.9
2023-02-23T00:15:03.000Z,7.9
2023-02-23T00:16:19.000Z,7.9
2023-02-23T00:17:35.000Z,7.8
2023-02-23T00:18:52.000Z,7.8
2023-02-23T00:20:08.000Z,7.8
2023-02-23T00:21:23.633Z,7.8
2023-02-23T00:22:39.000Z,7.8
2023-02-23T00:23:55.000Z,7.8
2023-02-23T00:25:11.000Z,7.8
2023-02-23T00:26:27.000Z,7.7
2023-02-23T00:27:44.000Z,7.7
2023-02-23T00:29:00.000Z,7.7
2023-02-23T00:30:16.000Z,7.7
2023-02-23T00:31:32.000Z,7.7
2023-02-23T00:32:48.000Z,7.7
2023-02-23T00:34:04.000Z,7.7
2023-02-23T00:35:20.000Z,7.7
2023-02-23T00:36:37.000Z,7.7
2023-02-23T00:37:52.000Z,7.7
2023-02-23T00:39:08.000Z,7.7
2023-02-23T00:40:24.000Z,7.7
2023-02-23T00:41:40.000Z,7.7
2023-02-23T00:42:56.000Z,7.7
2023-02-23T00:44:13.000Z,7.7
2023-02-23T00:45:29.000Z,7.7
2023-02-23T00:46:45.000Z,7.7
2023-02-23T00:48:01.000Z,7.7
2023-02-23T00:49:17.000Z,7.7
2023-02-23T00:50:33.000Z,7.7
2023-02-23T00:51:50.145Z,7.7
2023-02-23T00:53:06.000Z,7.8
2023-02-23T00:54:21.000Z,7.8
2023-02-23T00:55:37.000Z,7.8
2023-02-23T00:56:53.000Z,7.8
2023-02-23T00:58:09.000Z,7.8
2023-02-23T00:59:25.000Z,7.8
2023-02-23T01:00:41.000Z,7.8
2023-02-23T01:01:58.000Z,7.8
2023-02-23T01:03:14.000Z,7.9
2023-02-23T01:04:30.614Z,7.9
2023-02-23T01:05:46.762Z,7.9
2023-02-23T01:07:02.000Z,7.9
2023-02-23T01:08:19.052Z,7.9
2023-02-23T01:09:34.000Z,8
2023-02-23T01:10:50.000Z,8
2023-02-23T01:12:06.506Z,8
2023-02-23T01:13:22.000Z,8
2023-02-23T01:14:38.000Z,8
2023-02-23T01:15:54.000Z,8
2023-02-23T01:17:10.000Z,8.1
2023-02-23T01:18:27.000Z,8.1
2023-02-23T01:19:43.369Z,8.1
2023-02-23T01:20:59.537Z,8.1
2023-02-23T01:22:15.677Z,8.1
2023-02-23T01:23:31.000Z,8.1
2023-02-23T01:24:47.000Z,8.1
2023-02-23T01:26:03.000Z,8.2
2023-02-23T01:27:19.000Z,8.2
2023-02-23T01:28:35.000Z,8.2
2023-02-23T01:29:51.554Z,8.2
2023-02-23T01:31:07.000Z,8.2
2023-02-23T01:32:23.000Z,8.2
2023-02-23T01:33:39.000Z,8.3
2023-02-23T01:34:55.000Z,8.3
2023-02-23T01:36:12.279Z,8.3
2023-02-23T01:37:28.000Z,8.3
2023-02-23T01:38:44.000Z,8.3
2023-02-23T01:40:00.000Z,8.3
2023-02-23T01:41:16.866Z,8.3
2023-02-23T01:42:32.000Z,8.3
2023-02-23T01:43:47.000Z,8.3
2023-02-23T01:45:04.000Z,8.3
2023-02-23T01:46:20.000Z,8.4
2023-02-23T01:47:36.000Z,8.4
2023-02-23T01:48:52.000Z,8.4
2023-02-23T01:50:08.000Z,8.4
2023-02-23T01:51:25.040Z,8.4
2023-02-23T01:52:40.000Z,8.4
2023-02-23T01:53:57.336Z,8.4
2023-02-23T01:55:13.000Z,8.4
2023-02-23T01:56:29.000Z,8.4
2023-02-23T01:57:45.000Z,8.4
2023-02-23T01:59:01.000Z,8.4
2023-02-23T02:00:16.000Z,8.4
2023-02-23T02:01:32.000Z,8.4
2023-02-23T02:02:49.000Z,8.4
2023-02-23T02:04:05.000Z,8.4
2023-02-23T02:05:21.000Z,8.4
2023-02-23T02:06:37.000Z,8.5
2023-02-23T02:07:53.000Z,8.5
2023-02-23T02:09:09.000Z,8.5
2023-02-23T02:10:26.000Z,8.5
2023-02-23T02:11:42.000Z,8.5
2023-02-23T02:12:58.000Z,8.5
2023-02-23T02:14:14.000Z,8.5
2023-02-23T02:15:30.000Z,8.5
2023-02-23T02:16:45.987Z,8.6
2023-02-23T02:18:01.000Z,8.6
2023-02-23T02:19:18.000Z,8.6
2023-02-23T02:20:34.000Z,8.6
2023-02-23T02:21:50.000Z,8.6
2023-02-23T02:23:06.000Z,8.6
2023-02-23T02:24:22.861Z,8.6
2023-02-23T02:25:38.000Z,8.6
2023-02-23T02:26:54.000Z,8.6
2023-02-23T02:28:11.000Z,8.6
2023-02-23T02:29:27.448Z,8.6
2023-02-23T02:30:43.584Z,8.7
2023-02-23T02:31:59.000Z,8.7
2023-02-23T02:33:14.000Z,8.7
2023-02-23T02:34:30.000Z,8.7
2023-02-23T02:35:46.000Z,8.7
2023-02-23T02:37:03.000Z,8.7
2023-02-23T02:38:19.000Z,8.7
2023-02-23T02:39:35.000Z,8.7
2023-02-23T02:40:51.000Z,8.7
2023-02-23T02:42:07.000Z,8.7
2023-02-23T02:43:23.000Z,8.7
2023-02-23T02:44:39.000Z,8.7
2023-02-23T02:45:56.000Z,8.7
2023-02-23T02:47:12.495Z,8.7
2023-02-23T02:48:28.000Z,8.7
2023-02-23T02:49:43.000Z,8.7
2023-02-23T02:50:59.000Z,8.7
2023-02-23T02:52:15.000Z,8.7
2023-02-23T02:53:32.000Z,8.7
2023-02-23T02:54:48.000Z,8.8
2023-02-23T02:56:04.000Z,8.7
2023-02-23T02:57:20.000Z,8.7
2023-02-23T02:58:36.000Z,8.8
2023-02-23T02:59:52.968Z,8.7
2023-02-23T03:01:08.000Z,8.7
2023-02-23T03:02:25.000Z,8.7
2023-02-23T03:03:41.000Z,8.7
2023-02-23T03:04:57.000Z,8.7
2023-02-23T03:06:12.000Z,8.7
2023-02-23T03:07:28.856Z,8.7
2023-02-23T03:08:44.000Z,8.7
2023-02-23T03:10:01.152Z,8.7
2023-02-23T03:11:17.000Z,8.7
2023-02-23T03:12:33.000Z,8.7
2023-02-23T03:13:49.000Z,8.7
2023-02-23T03:15:05.000Z,8.7
2023-02-23T03:16:21.000Z,8.7
2023-02-23T03:17:37.000Z,8.7
2023-02-23T03:18:53.000Z,8.7
2023-02-23T03:20:10.000Z,8.7
2023-02-23T03:21:26.000Z,8.7
2023-02-23T03:22:41.000Z,8.7
2023-02-23T03:23:57.000Z,8.7
2023-02-23T03:25:13.000Z,8.7
2023-02-23T03:26:29.000Z,8.7
2023-02-23T03:27:45.000Z,8.7
2023-02-23T03:29:02.000Z,8.7
2023-02-23T03:30:18.000Z,8.7
2023-02-23T03:31:34.000Z,8.7
2023-02-23T03:32:50.784Z,8.6
2023-02-23T03:34:06.000Z,8.6
2023-02-23T03:35:22.000Z,8.6
2023-02-23T03:36:39.000Z,8.6
2023-02-23T03:37:55.000Z,8.6
2023-02-23T03:40:26.000Z,8.6
2023-02-23T03:41:42.823Z,8.6
2023-02-23T03:42:58.000Z,8.6
2023-02-23T03:44:14.000Z,8.6
2023-02-23T03:45:31.259Z,8.6
2023-02-23T03:46:47.000Z,8.6
2023-02-23T03:48:03.000Z,8.6
2023-02-23T03:49:19.000Z,8.6
2023-02-23T03:50:35.000Z,8.6
2023-02-23T03:51:51.000Z,8.6
2023-02-23T03:53:08.137Z,8.6
2023-02-23T03:54:24.000Z,8.6
2023-02-23T03:55:39.000Z,8.6
2023-02-23T03:56:55.000Z,8.6
2023-02-23T03:58:11.735Z,8.6
2023-02-23T03:59:27.000Z,8.6
2023-02-23T04:00:43.000Z,8.6
2023-02-23T04:02:00.167Z,8.6
2023-02-23T04:03:16.000Z,8.6
2023-02-23T04:04:32.000Z,8.6
2023-02-23T04:05:48.000Z,8.6
2023-02-23T04:07:04.000Z,8.6
2023-02-23T04:08:20.000Z,8.6
2023-02-23T04:09:36.000Z,8.6
2023-02-23T04:10:52.000Z,8.6
2023-02-23T04:12:08.356Z,8.6
2023-02-23T04:13:24.000Z,8.6
2023-02-23T04:14:40.649Z,8.6
2023-02-23T04:15:56.000Z,8.6
2023-02-23T04:17:12.000Z,8.6
2023-02-23T04:18:28.000Z,8.6
2023-02-23T04:19:44.000Z,8.6
2023-02-23T04:21:00.000Z,8.6
2023-02-23T04:22:16.540Z,8.6
2023-02-23T04:23:32.000Z,8.6
2023-02-23T04:24:48.000Z,8.6
2023-02-23T04:26:04.974Z,8.6
2023-02-23T04:27:20.000Z,8.6
2023-02-23T04:28:37.000Z,8.6
2023-02-23T04:29:53.000Z,8.6
2023-02-23T04:31:09.000Z,8.6
2023-02-23T04:32:25.000Z,8.6
2023-02-23T04:33:41.000Z,8.6
2023-02-23T04:34:57.000Z,8.6
2023-02-23T04:36:13.000Z,8.6
2023-02-23T04:37:29.000Z,8.5
2023-02-23T04:38:45.000Z,8.5
2023-02-23T04:40:01.000Z,8.5
2023-02-23T04:41:17.000Z,8.5
2023-02-23T04:42:33.000Z,8.5
2023-02-23T04:43:49.000Z,8.4
2023-02-23T04:45:05.000Z,8.4
2023-02-23T04:46:22.315Z,8.4
2023-02-23T04:47:38.467Z,8.4
2023-02-23T04:48:54.604Z,8.4
2023-02-23T04:50:10.000Z,8.3
2023-02-23T04:51:26.000Z,8.3
2023-02-23T04:52:42.000Z,8.2
2023-02-23T04:53:57.000Z,8.2
2023-02-23T04:55:14.000Z,8.1
2023-02-23T04:56:30.000Z,8.1
2023-02-23T04:57:46.000Z,8.1
2023-02-23T04:59:02.000Z,8
2023-02-23T05:00:18.000Z,8
2023-02-23T05:01:34.000Z,8
2023-02-23T05:02:50.000Z,8
2023-02-23T05:04:07.372Z,8
2023-02-23T05:05:23.000Z,8.1
2023-02-23T05:06:39.000Z,8.1
2023-02-23T05:07:55.000Z,8.1
2023-02-23T05:09:11.000Z,8.1
2023-02-23T05:10:26.000Z,8.1
2023-02-23T05:11:43.000Z,8.1
2023-02-23T05:12:59.000Z,8.1
2023-02-23T05:14:15.000Z,8.2
2023-02-23T05:15:31.000Z,8.2
2023-02-23T05:16:47.000Z,8.2
2023-02-23T05:18:03.000Z,8.2
2023-02-23T05:19:19.000Z,8.2
2023-02-23T05:20:36.000Z,8.2
2023-02-23T05:21:52.000Z,8.2
2023-02-23T05:23:08.000Z,8.2
2023-02-23T05:24:24.000Z,8.2
2023-02-23T05:25:40.000Z,8.2
2023-02-23T05:26:55.000Z,8.3
2023-02-23T05:28:11.000Z,8.3
2023-02-23T05:29:28.000Z,8.2
2023-02-23T05:30:44.000Z,8.2
2023-02-23T05:32:00.000Z,8.2
2023-02-23T05:33:16.000Z,8.2
2023-02-23T05:34:32.000Z,8.2
2023-02-23T05:35:48.000Z,8.2
2023-02-23T05:37:04.000Z,8.2
2023-02-23T05:38:21.341Z,8.2
2023-02-23T05:39:37.000Z,8.2
2023-02-23T05:40:53.000Z,8.2
2023-02-23T05:42:09.785Z,8.1
2023-02-23T05:43:24.945Z,8.1
2023-02-23T05:44:40.000Z,8.1
2023-02-23T05:45:57.000Z,8.1
2023-02-23T05:47:13.000Z,8
2023-02-23T05:48:29.000Z,8
2023-02-23T05:49:45.000Z,8
2023-02-23T05:51:01.000Z,8
2023-02-23T05:52:17.000Z,8
2023-02-23T05:53:33.000Z,8
2023-02-23T05:54:50.000Z,8
2023-02-23T05:56:06.420Z,8
2023-02-23T05:57:22.000Z,8
2023-02-23T05:58:38.000Z,8
2023-02-23T05:59:53.000Z,8
2023-02-23T06:01:09.000Z,8
2023-02-23T06:02:25.000Z,8
2023-02-23T06:03:42.314Z,8
2023-02-23T06:04:58.000Z,8
2023-02-23T06:06:14.000Z,8.1
2023-02-23T06:07:30.000Z,8.1
2023-02-23T06:08:46.891Z,8.1
2023-02-23T06:10:02.000Z,8.1
2023-02-23T06:11:18.000Z,8.1
2023-02-23T06:12:35.330Z,8.1
2023-02-23T06:13:51.000Z,8.1
2023-02-23T06:15:07.626Z,8.1
2023-02-23T06:16:22.000Z,8.1
2023-02-23T06:17:38.935Z,8.2
2023-02-23T06:18:55.084Z,8.2
2023-02-23T06:20:10.000Z,8.2
2023-02-23T06:21:27.000Z,8.2
2023-02-23T06:22:43.000Z,8.2
2023-02-23T06:23:59.676Z,8.2
2023-02-23T06:25:15.000Z,8.1
2023-02-23T06:26:31.000Z,8.1
2023-02-23T06:27:47.000Z,8.1
2023-02-23T06:29:04.257Z,8.1
2023-02-23T06:30:20.000Z,8.1
2023-02-23T06:31:36.000Z,8.1
2023-02-23T06:32:51.000Z,8.1
2023-02-23T06:34:07.000Z,8.1
2023-02-23T06:35:23.000Z,8.1
2023-02-23T06:36:39.000Z,8.2
2023-02-23T06:37:56.000Z,8.2
2023-02-23T06:39:12.450Z,8.2
2023-02-23T06:40:28.000Z,8.1
2023-02-23T06:41:44.000Z,8.1
2023-02-23T06:43:00.000Z,8.1
2023-02-23T06:44:16.000Z,8.1
2023-02-23T06:45:32.000Z,8.1
2023-02-23T06:46:49.000Z,8.1
2023-02-23T06:48:05.000Z,8.1
2023-02-23T06:49:20.650Z,8.1
2023-02-23T06:50:36.000Z,8.1
2023-02-23T06:51:52.000Z,8.1
2023-02-23T06:53:09.078Z,8.1
2023-02-23T06:54:24.000Z,8.1
2023-02-23T06:55:41.000Z,8.1
2023-02-23T06:56:57.000Z,8.1
2023-02-23T06:58:13.000Z,8.1
2023-02-23T06:59:29.000Z,8.1
2023-02-23T07:00:45.000Z,8.1
2023-02-23T07:02:01.000Z,8.1
2023-02-23T07:03:18.000Z,8.1
2023-02-23T07:04:34.000Z,8.1
2023-02-23T07:05:49.000Z,8.1
2023-02-23T07:07:05.000Z,8.1
2023-02-23T07:08:21.000Z,8.2
2023-02-23T07:09:37.000Z,8.2
2023-02-23T07:10:53.000Z,8.1
2023-02-23T07:12:10.000Z,8.1
2023-02-23T07:13:26.000Z,8.1
2023-02-23T07:14:42.000Z,8.2
2023-02-23T07:15:58.000Z,8.2
2023-02-23T07:17:14.000Z,8.2
2023-02-23T07:18:31.027Z,8.2
2023-02-23T07:19:46.000Z,8.2
2023-02-23T07:21:03.000Z,8.2
2023-02-23T07:22:18.000Z,8.2
2023-02-23T07:23:34.634Z,8.2
2023-02-23T07:24:50.000Z,8.2
2023-02-23T07:26:06.000Z,8.2
2023-02-23T07:27:23.073Z,8.2
2023-02-23T07:28:38.000Z,8.2
2023-02-23T07:29:55.000Z,8.2
2023-02-23T07:31:11.000Z,8.3
2023-02-23T07:32:27.000Z,8.3
2023-02-23T07:33:43.000Z,8.3
2023-02-23T07:34:59.000Z,8.3
2023-02-23T07:36:15.000Z,8.3
2023-02-23T07:37:32.000Z,8.3
2023-02-23T07:38:47.000Z,8.3
2023-02-23T07:40:03.000Z,8.3
2023-02-23T07:41:19.000Z,8.3
2023-02-23T07:42:35.000Z,8.3
2023-02-23T07:43:51.000Z,8.3
2023-02-23T07:45:07.000Z,8.3
2023-02-23T07:46:24.000Z,8.4
2023-02-23T07:47:40.000Z,8.4
2023-02-23T07:48:56.000Z,8.4
2023-02-23T07:50:12.731Z,8.4
2023-02-23T07:51:28.000Z,8.4
2023-02-23T07:52:44.000Z,8.4
2023-02-23T07:54:01.176Z,8.4
2023-02-23T07:55:16.000Z,8.4
2023-02-23T07:56:32.000Z,8.4
2023-02-23T07:57:48.631Z,8.4
2023-02-23T07:59:04.000Z,8.4
2023-02-23T08:00:20.000Z,8.4
2023-02-23T08:01:36.000Z,8.4
2023-02-23T08:02:52.000Z,8.4
2023-02-23T08:04:09.000Z,8.4
2023-02-23T08:05:25.000Z,8.4
2023-02-23T08:06:41.653Z,8.4
2023-02-23T08:07:57.000Z,8.4
2023-02-23T08:09:13.000Z,8.4
2023-02-23T08:10:30.102Z,8.4
2023-02-23T08:11:45.000Z,8.4
2023-02-23T08:13:01.000Z,8.4
2023-02-23T08:14:17.000Z,8.4
2023-02-23T08:15:33.704Z,8.4
2023-02-23T08:16:49.000Z,8.4
2023-02-23T08:18:05.995Z,8.4
2023-02-23T08:19:21.000Z,8.4
2023-02-23T08:20:38.000Z,8.5
2023-02-23T08:21:54.000Z,8.5
2023-02-23T08:23:10.000Z,8.5
2023-02-23T08:24:26.000Z,8.5
2023-02-23T08:25:42.000Z,8.5
2023-02-23T08:26:58.000Z,8.5
2023-02-23T08:28:13.000Z,8.5
2023-02-23T08:29:30.000Z,8.5
2023-02-23T08:30:46.000Z,8.5
2023-02-23T08:32:02.623Z,8.5
2023-02-23T08:33:18.000Z,8.5
2023-02-23T08:34:33.000Z,8.5
2023-02-23T08:35:49.000Z,8.5
2023-02-23T08:37:06.234Z,8.5
2023-02-23T08:38:22.000Z,8.5
2023-02-23T08:39:38.000Z,8.5
2023-02-23T08:40:54.000Z,8.5
2023-02-23T08:42:10.000Z,8.5
2023-02-23T08:43:26.000Z,8.4
2023-02-23T08:44:42.000Z,8.5
2023-02-23T08:45:59.000Z,8.5
2023-02-23T08:47:15.412Z,8.5
2023-02-23T08:48:31.000Z,8.5
2023-02-23T08:49:47.702Z,8.5
2023-02-23T08:51:02.000Z,8.5
2023-02-23T08:52:19.013Z,8.5
2023-02-23T08:53:34.000Z,8.5
2023-02-23T08:54:51.000Z,8.5
2023-02-23T08:56:07.000Z,8.5
2023-02-23T08:57:23.000Z,8.5
2023-02-23T08:58:39.000Z,8.6
2023-02-23T08:59:55.891Z,8.6
2023-02-23T09:02:28.188Z,8.6
2023-02-23T09:03:44.000Z,8.6
2023-02-23T09:05:00.000Z,8.6
2023-02-23T09:06:16.000Z,8.7
2023-02-23T09:07:31.000Z,8.7
2023-02-23T09:08:47.937Z,8.7
2023-02-23T09:10:03.000Z,8.7
2023-02-23T09:11:20.000Z,8.7
2023-02-23T09:12:36.399Z,8.8
2023-02-23T09:13:52.000Z,8.8
2023-02-23T09:15:08.000Z,8.8
2023-02-23T09:16:24.819Z,8.8
2023-02-23T09:17:40.970Z,8.9
2023-02-23T09:18:56.000Z,8.9
2023-02-23T09:20:13.000Z,8.9
2023-02-23T09:21:29.000Z,8.9
2023-02-23T09:22:45.000Z,9
2023-02-23T09:24:00.000Z,9
2023-02-23T09:26:32.000Z,9
2023-02-23T09:27:48.000Z,9.1
2023-02-23T09:29:05.000Z,9.1
2023-02-23T09:30:21.000Z,9.1
2023-02-23T09:31:37.000Z,9.1
2023-02-23T09:32:53.000Z,9.2
2023-02-23T09:34:09.000Z,9.2
2023-02-23T09:35:26.040Z,9.2
2023-02-23T09:36:41.000Z,9.2
2023-02-23T09:37:58.000Z,9.3
2023-02-23T09:39:14.000Z,9.3
2023-02-23T09:40:29.651Z,9.3
2023-02-23T09:41:45.792Z,9.4
2023-02-23T09:43:01.000Z,9.4
2023-02-23T09:44:17.000Z,9.5
2023-02-23T09:45:34.000Z,9.5
2023-02-23T09:46:50.000Z,9.5
2023-02-23T09:48:06.000Z,9.5
2023-02-23T09:49:22.000Z,9.6
2023-02-23T09:50:38.840Z,9.6
2023-02-23T09:51:54.000Z,9.6
2023-02-23T09:53:10.000Z,9.6
2023-02-23T09:54:27.000Z,9.6
2023-02-23T09:55:43.000Z,9.5
2023-02-23T09:56:58.000Z,9.5
2023-02-23T09:58:14.000Z,9.5
2023-02-23T09:59:30.000Z,9.5
2023-02-23T10:00:47.018Z,9.5
2023-02-23T10:02:02.000Z,9.6
2023-02-23T10:03:19.000Z,9.6
2023-02-23T10:04:35.000Z,9.5
2023-02-23T10:05:51.000Z,9.5
2023-02-23T10:07:07.000Z,9.5
2023-02-23T10:08:23.000Z,9.5
2023-02-23T10:09:39.000Z,9.5
2023-02-23T10:10:55.000Z,9.5
2023-02-23T10:12:12.000Z,9.5
2023-02-23T10:13:27.000Z,9.5
2023-02-23T10:14:43.652Z,9.5
2023-02-23T10:15:59.000Z,9.6
2023-02-23T10:17:15.950Z,9.6
2023-02-23T10:18:31.000Z,9.6
2023-02-23T10:19:48.000Z,9.7
2023-02-23T10:21:04.000Z,9.7
2023-02-23T10:22:20.000Z,9.7
2023-02-23T10:23:36.000Z,9.7
2023-02-23T10:24:52.000Z,9.7
2023-02-23T10:26:08.974Z,9.7
2023-02-23T10:27:24.000Z,9.7
2023-02-23T10:28:41.000Z,9.7
2023-02-23T10:29:56.000Z,9.7
2023-02-23T10:31:12.000Z,9.7
2023-02-23T10:32:28.000Z,9.7
2023-02-23T10:33:44.870Z,9.7
2023-02-23T10:35:00.000Z,9.7
2023-02-23T10:36:16.000Z,9.6
2023-02-23T10:37:33.000Z,9.6
2023-02-23T10:38:49.000Z,9.6
2023-02-23T10:40:05.000Z,9.6
2023-02-23T10:41:21.747Z,9.6
2023-02-23T10:42:37.895Z,9.6
2023-02-23T10:43:53.000Z,9.6
2023-02-23T10:45:09.000Z,9.7
2023-02-23T10:46:25.000Z,9.7
2023-02-23T10:47:41.000Z,9.8
2023-02-23T10:48:57.000Z,9.8
2023-02-23T10:50:13.000Z,9.8
2023-02-23T10:51:29.000Z,9.9
2023-02-23T10:52:45.000Z,9.9
2023-02-23T10:54:02.000Z,10
2023-02-23T10:55:18.000Z,10
2023-02-23T10:56:34.000Z,10
2023-02-23T10:57:50.000Z,10.1
2023-02-23T10:59:06.000Z,10.1
2023-02-23T11:00:22.000Z,10.1
2023-02-23T11:01:38.000Z,10.2
2023-02-23T11:02:54.284Z,10.2
2023-02-23T11:04:10.000Z,10.2
2023-02-23T11:05:26.578Z,10.2
2023-02-23T11:06:42.000Z,10.2
2023-02-23T11:07:58.000Z,10.2
2023-02-23T11:09:14.000Z,10.2
2023-02-23T11:10:30.000Z,10.2
2023-02-23T11:11:47.000Z,10.2
2023-02-23T11:13:03.000Z,10.2
2023-02-23T11:14:19.000Z,10.3
2023-02-23T11:15:35.000Z,10.4
2023-02-23T11:16:51.000Z,10.5
2023-02-23T11:18:07.000Z,10.6
2023-02-23T11:19:23.210Z,10.6
2023-02-23T11:20:39.000Z,10.7
2023-02-23T11:21:55.000Z,10.7
2023-02-23T11:23:11.000Z,10.8
2023-02-23T11:24:27.000Z,10.9
2023-02-23T11:25:43.000Z,11
2023-02-23T11:26:59.000Z,11.1
2023-02-23T11:28:16.000Z,11.2
2023-02-23T11:29:32.000Z,11.3
2023-02-23T11:30:48.540Z,11.4
2023-02-23T11:32:04.000Z,11.4
2023-02-23T11:33:20.000Z,11.3
2023-02-23T11:34:36.982Z,11.2
2023-02-23T11:35:51.000Z,11.2
2023-02-23T11:37:08.000Z,11.2
2023-02-23T11:38:24.000Z,11.1
2023-02-23T11:39:40.000Z,11.1
2023-02-23T11:40:56.000Z,11.2
2023-02-23T11:42:12.000Z,11.2
2023-02-23T11:43:28.000Z,11.2
2023-02-23T11:44:44.000Z,11.2
2023-02-23T11:46:01.000Z,11.3
2023-02-23T11:47:17.463Z,11.3
2023-02-23T11:48:33.000Z,11.2
2023-02-23T11:49:49.000Z,11.2
2023-02-23T11:51:05.904Z,11.2
2023-02-23T11:52:20.000Z,11.2
2023-02-23T11:53:36.000Z,11.2
2023-02-23T11:54:53.000Z,11.2
2023-02-23T11:56:09.000Z,11.2
2023-02-23T11:57:25.000Z,11.2
2023-02-23T11:58:41.000Z,11.2
2023-02-23T11:59:57.000Z,11.2
2023-02-23T12:01:13.000Z,11.2
2023-02-23T12:02:30.000Z,11.2
2023-02-23T12:03:46.000Z,11.2
2023-02-23T12:05:02.000Z,11.2
2023-02-23T12:06:18.000Z,11.2
2023-02-23T12:07:34.000Z,11.2
2023-02-23T12:08:49.000Z,11.2
2023-02-23T12:10:05.000Z,11.2
2023-02-23T12:11:22.000Z,11.3
2023-02-23T12:12:38.000Z,11.3
2023-02-23T12:13:54.000Z,11.4
2023-02-23T12:15:10.000Z,11.4
2023-02-23T12:16:26.000Z,11.4
2023-02-23T12:17:42.000Z,11.4
2023-02-23T12:18:58.000Z,11.4
2023-02-23T12:20:15.000Z,11.4
2023-02-23T12:21:31.000Z,11.3
2023-02-23T12:22:47.000Z,11.2
2023-02-23T12:24:03.000Z,11.1
2023-02-23T12:25:18.918Z,11.1
2023-02-23T12:26:34.000Z,11
2023-02-23T12:27:50.000Z,11
2023-02-23T12:29:07.000Z,11
2023-02-23T12:30:23.000Z,10.9
2023-02-23T12:31:39.000Z,10.9
2023-02-23T12:32:55.000Z,10.9
2023-02-23T12:34:11.000Z,10.8
2023-02-23T12:35:27.000Z,10.8
2023-02-23T12:36:44.000Z,10.8
2023-02-23T12:38:00.000Z,10.7
2023-02-23T12:39:16.000Z,10.6
2023-02-23T12:40:32.000Z,10.6
2023-02-23T12:41:47.000Z,10.5
2023-02-23T12:43:03.000Z,10.5
2023-02-23T12:44:19.000Z,10.5
2023-02-23T12:45:36.000Z,10.5
2023-02-23T12:46:52.000Z,10.5
2023-02-23T12:48:08.000Z,10.5
2023-02-23T12:49:23.000Z,10.5
2023-02-23T12:50:39.000Z,10.5
2023-02-23T12:51:55.000Z,10.5
2023-02-23T12:53:11.000Z,10.4
2023-02-23T12:54:28.327Z,10.4
2023-02-23T12:55:44.000Z,10.4
2023-02-23T12:57:00.000Z,10.4
2023-02-23T12:58:16.773Z,10.5
2023-02-23T12:59:32.000Z,10.5
2023-02-23T13:00:49.063Z,10.5
2023-02-23T13:02:04.000Z,10.5
2023-02-23T13:03:21.360Z,10.6
2023-02-23T13:04:37.000Z,10.6
2023-02-23T13:05:52.000Z,10.6
2023-02-23T13:07:08.000Z,10.7
2023-02-23T13:08:24.000Z,10.7
2023-02-23T13:09:41.108Z,10.8
2023-02-23T13:10:57.000Z,10.8
2023-02-23T13:12:13.000Z,10.9
2023-02-23T13:13:29.000Z,10.9
2023-02-23T13:14:45.000Z,11
2023-02-23T13:16:01.000Z,11.1
2023-02-23T13:17:17.000Z,11.2
2023-02-23T13:18:34.138Z,11.2
2023-02-23T13:19:50.284Z,11.3
2023-02-23T13:21:06.000Z,11.4
2023-02-23T13:22:21.000Z,11.4
2023-02-23T13:23:37.748Z,11.4
2023-02-23T13:24:53.897Z,11.4
2023-02-23T13:26:09.000Z,11.4
2023-02-23T13:27:26.187Z,11.3
2023-02-23T13:28:42.000Z,11.2
2023-02-23T13:29:58.000Z,11.2
2023-02-23T13:31:14.000Z,11.1
2023-02-23T13:32:30.769Z,11
2023-02-23T13:33:46.000Z,10.9
2023-02-23T13:35:02.000Z,10.9
2023-02-23T13:36:19.209Z,10.8
2023-02-23T13:37:35.000Z,10.8
2023-02-23T13:38:50.000Z,10.8
2023-02-23T13:40:06.000Z,10.7
2023-02-23T13:42:38.000Z,10.7
2023-02-23T13:43:54.000Z,10.7
2023-02-23T13:45:11.000Z,10.6
2023-02-23T13:46:27.000Z,10.6
2023-02-23T13:47:43.000Z,10.6
2023-02-23T13:48:59.697Z,10.6
2023-02-23T13:50:15.000Z,10.6
2023-02-23T13:51:31.983Z,10.6
2023-02-23T13:52:47.000Z,10.5
2023-02-23T13:54:04.000Z,10.5
2023-02-23T13:55:19.000Z,10.4
2023-02-23T13:56:35.000Z,10.4
2023-02-23T13:57:51.000Z,10.3
2023-02-23T13:59:07.000Z,10.3
2023-02-23T14:00:23.000Z,10.2
2023-02-23T14:01:39.000Z,10.2
2023-02-23T14:02:56.000Z,10.2
2023-02-23T14:04:12.000Z,10.2
2023-02-23T14:05:28.000Z,10.2
2023-02-23T14:06:44.000Z,10.2
2023-02-23T14:08:00.000Z,10.2
2023-02-23T14:09:17.061Z,10.2
2023-02-23T14:10:32.000Z,10.2
2023-02-23T14:11:48.000Z,10.2
2023-02-23T14:13:04.515Z,10.1
2023-02-23T14:14:20.000Z,10.1
2023-02-23T14:15:36.000Z,10.1
2023-02-23T14:16:52.000Z,10.1
2023-02-23T14:18:08.000Z,10.2
2023-02-23T14:19:25.000Z,10.1
2023-02-23T14:20:41.000Z,10.1
2023-02-23T14:21:57.000Z,10.1
2023-02-23T14:23:13.000Z,10.1
2023-02-23T14:24:29.000Z,10
2023-02-23T14:25:45.000Z,10
2023-02-23T14:27:01.000Z,9.9
2023-02-23T14:28:17.000Z,9.9
2023-02-23T14:29:33.000Z,9.8
2023-02-23T14:30:49.000Z,9.8
2023-02-23T14:32:05.000Z,9.8
2023-02-23T14:33:21.000Z,9.7
2023-02-23T14:34:37.000Z,9.7
2023-02-23T14:35:53.000Z,9.7
2023-02-23T14:37:10.000Z,9.6
2023-02-23T14:38:26.468Z,9.6
2023-02-23T14:39:42.000Z,9.5
2023-02-23T14:40:58.000Z,9.4
2023-02-23T14:42:14.912Z,9.4
2023-02-23T14:43:30.000Z,9.3
2023-02-23T14:44:45.000Z,9.3
2023-02-23T14:46:02.000Z,9.2
2023-02-23T14:47:18.000Z,9.2
2023-02-23T14:48:34.000Z,9.2
2023-02-23T14:49:50.000Z,9.2
2023-02-23T14:51:06.000Z,9.1
2023-02-23T14:52:23.109Z,9.1
2023-02-23T14:53:39.000Z,9.1
2023-02-23T14:54:55.000Z,9.1
2023-02-23T14:56:11.000Z,9.1
2023-02-23T14:57:27.000Z,9
2023-02-23T14:58:43.000Z,9
2023-02-23T14:59:59.000Z,9
2023-02-23T15:01:14.000Z,9
2023-02-23T15:02:31.000Z,9
2023-02-23T15:03:47.439Z,8.9
2023-02-23T15:05:03.000Z,8.9
2023-02-23T15:06:19.000Z,8.9
2023-02-23T15:07:35.000Z,8.8
2023-02-23T15:08:51.000Z,8.8
2023-02-23T15:10:07.000Z,8.8
2023-02-23T15:11:24.000Z,8.7
2023-02-23T15:12:40.000Z,8.7
2023-02-23T15:13:56.000Z,8.7
2023-02-23T15:15:12.000Z,8.6
2023-02-23T15:16:28.000Z,8.6
2023-02-23T15:17:44.048Z,8.6
2023-02-23T15:18:59.000Z,8.6
2023-02-23T15:20:16.000Z,8.6
2023-02-23T15:21:32.486Z,8.5
2023-02-23T15:22:48.000Z,8.5
2023-02-23T15:24:04.000Z,8.5
2023-02-23T15:25:20.000Z,8.5
2023-02-23T15:26:36.000Z,8.4
2023-02-23T15:27:52.000Z,8.4
2023-02-23T15:29:09.000Z,8.4
2023-02-23T15:30:25.000Z,8.4
2023-02-23T15:31:41.000Z,8.3
2023-02-23T15:32:57.000Z,8.2
2023-02-23T15:34:12.000Z,8.2
2023-02-23T15:35:29.100Z,8.1
2023-02-23T15:36:45.000Z,8
2023-02-23T15:38:01.000Z,8
2023-02-23T15:39:17.000Z,7.9
2023-02-23T15:40:33.000Z,7.9
2023-02-23T15:41:49.000Z,7.8
2023-02-23T15:43:05.000Z,7.8
2023-02-23T15:44:21.000Z,7.7
2023-02-23T15:45:38.000Z,7.7
2023-02-23T15:46:54.000Z,7.6
2023-02-23T15:48:10.000Z,7.6
2023-02-23T15:50:42.000Z,7.5
2023-02-23T15:51:57.000Z,7.4
2023-02-23T15:53:13.000Z,7.4
2023-02-23T15:54:30.000Z,7.3
2023-02-23T15:55:46.000Z,7.3
2023-02-23T15:57:02.000Z,7.3
2023-02-23T15:58:18.000Z,7.2
2023-02-23T15:59:34.000Z,7.2
2023-02-23T16:00:50.000Z,7.1
2023-02-23T16:02:06.000Z,7.1
2023-02-23T16:03:23.000Z,7.1
2023-02-23T16:04:39.000Z,7
2023-02-23T16:05:55.000Z,7
2023-02-23T16:07:11.000Z,6.9
2023-02-23T16:08:26.000Z,6.9
2023-02-23T16:09:43.061Z,6.8
2023-02-23T16:10:58.000Z,6.8
2023-02-23T16:12:15.000Z,6.7
2023-02-23T16:13:31.000Z,6.7
2023-02-23T16:14:47.000Z,6.6
2023-02-23T16:16:03.000Z,6.6
2023-02-23T16:17:19.000Z,6.6
2023-02-23T16:18:35.000Z,6.5
2023-02-23T16:19:52.000Z,6.5
2023-02-23T16:21:08.000Z,6.5
2023-02-23T16:22:24.000Z,6.4
2023-02-23T16:23:40.000Z,6.4
2023-02-23T16:24:55.000Z,6.3
2023-02-23T16:26:11.000Z,6.3
2023-02-23T16:27:27.000Z,6.2
2023-02-23T16:28:44.000Z,6.1
2023-02-23T16:30:00.411Z,6.1
2023-02-23T16:31:16.000Z,6.1
2023-02-23T16:32:32.000Z,6
2023-02-23T16:33:48.000Z,6
2023-02-23T16:35:04.000Z,6
2023-02-23T16:36:20.000Z,5.9
2023-02-23T16:37:37.000Z,5.9
2023-02-23T16:38:53.000Z,5.8
2023-02-23T16:40:09.000Z,5.8
2023-02-23T16:41:24.000Z,5.8
2023-02-23T16:42:40.000Z,5.8
2023-02-23T16:43:56.000Z,5.8
2023-02-23T16:45:12.000Z,5.7
2023-02-23T16:46:29.309Z,5.7
2023-02-23T16:47:45.000Z,5.7
2023-02-23T16:49:01.000Z,5.7
2023-02-23T16:50:17.000Z,5.7
2023-02-23T16:51:33.893Z,5.6
2023-02-23T16:52:49.000Z,5.6
2023-02-23T16:54:05.000Z,5.6
2023-02-23T16:55:22.000Z,5.5
2023-02-23T16:56:38.000Z,5.5
2023-02-23T16:57:53.000Z,5.4
2023-02-23T16:59:09.000Z,5.4
2023-02-23T17:00:25.000Z,5.3
2023-02-23T17:01:42.069Z,5.3
2023-02-23T17:02:57.000Z,5.3
2023-02-23T17:04:13.000Z,5.2
2023-02-23T17:05:29.000Z,5.2
2023-02-23T17:06:45.000Z,5.2
2023-02-23T17:08:01.000Z,5.1
2023-02-23T17:09:17.000Z,5.1
2023-02-23T17:10:33.000Z,5.1
2023-02-23T17:11:50.000Z,5.1
2023-02-23T17:13:06.404Z,5
2023-02-23T17:14:22.000Z,5
2023-02-23T17:15:38.000Z,5
2023-02-23T17:16:54.000Z,4.9
2023-02-23T17:18:10.000Z,4.9
2023-02-23T17:19:26.000Z,4.8
2023-02-23T17:20:42.000Z,4.8
2023-02-23T17:21:58.000Z,4.7
2023-02-23T17:23:14.000Z,4.7
2023-02-23T17:24:30.000Z,4.7
2023-02-23T17:25:46.000Z,4.6
2023-02-23T17:27:02.000Z,4.6
2023-02-23T17:28:18.000Z,4.6
2023-02-23T17:29:35.000Z,4.5
2023-02-23T17:30:51.000Z,4.5
2023-02-23T17:32:07.000Z,4.5